Terminal Aerodrome Forecast
Issued by NWS Cleveland, OH

Home | Current Version | Previous Version | Graphics & Text | Print | Product List | Glossary On
Versions: 1 2 3 4 5 6 7 8 9 10 11 12 13 14 15 16
000
FTUS41 KCLE 301200 AAA
TAFTOL
TAF AMD
KTOL 301225Z 3012/0112 36010KT P6SM SCT015 BKN020 OVC040
     FM301800 36010KT P6SM VCSH SCT040 BKN080
     FM010000 35005KT P6SM BKN080
     FM010800 VRB03KT P6SM SKC=

USA.gov is the U.S. government's official web portal to all federal, state and local government web resources and services.